Time;durP1;ratioP1;P1;durP2;ratioP2;P2;SDS_P1;SDS_P2;PMS_P1;PMS_P2;Temp;Humidity;BMP_temperature;BMP_pressure;BME280_temperature;BME280_humidity;BME280_pressure;Samples;Min_cycle;Max_cycle;Signal;HPM_P1;HPM_P2
2021/07/21 00:00:38;;;;;;;7.67;7.03;;;;;;;17.13;80.17;101121.63;5032963;28;20199;-76
2021/07/21 00:03:05;;;;;;;7.10;6.60;;;;;;;17.21;79.39;101147.75;5032765;28;20202;-77
2021/07/21 00:05:32;;;;;;;7.90;7.30;;;;;;;17.24;79.13;101163.47;5033017;28;20233;-76
2021/07/21 00:07:59;;;;;;;6.80;6.30;;;;;;;17.25;79.07;101160.78;5033304;28;20233;-76
2021/07/21 00:10:27;;;;;;;7.23;6.63;;;;;;;17.25;78.80;101173.13;5033061;28;20207;-76
2021/07/21 00:15:49;;;;;;;7.23;6.63;;;;;;;17.18;79.40;101166.31;5032715;28;20254;-76
2021/07/21 00:18:20;;;;;;;7.77;7.07;;;;;;;17.18;79.41;101153.97;5033071;28;20257;-76
2021/07/21 00:20:48;;;;;;;8.23;7.53;;;;;;;17.12;79.93;101148.06;5033070;28;20202;-76
2021/07/21 00:23:14;;;;;;;7.97;7.27;;;;;;;17.11;79.86;101144.56;5032884;28;20261;-76
2021/07/21 00:25:41;;;;;;;8.13;7.43;;;;;;;17.02;80.54;101129.91;5032697;28;20212;-77
2021/07/21 00:28:07;;;;;;;7.33;6.63;;;;;;;16.96;81.00;101121.34;5032555;28;20369;-76
2021/07/21 00:30:34;;;;;;;8.47;6.93;;;;;;;16.95;81.07;101109.94;5032680;28;20213;-76
2021/07/21 00:33:02;;;;;;;8.10;7.47;;;;;;;16.96;81.15;101102.91;5032610;28;20230;-76
2021/07/21 00:35:28;;;;;;;8.40;7.70;;;;;;;16.92;81.39;101094.22;5032450;28;20202;-76
2021/07/21 00:37:55;;;;;;;8.53;7.90;;;;;;;16.93;81.58;101097.75;5032613;28;20223;-76
2021/07/21 00:40:21;;;;;;;8.13;7.33;;;;;;;16.92;81.79;101093.38;5032514;28;20211;-75
2021/07/21 00:42:48;;;;;;;8.33;7.60;;;;;;;16.88;82.09;101076.78;5032052;28;20250;-77
2021/07/21 00:45:14;;;;;;;8.13;7.37;;;;;;;16.90;82.07;101071.47;5032081;28;20206;-76
2021/07/21 00:47:41;;;;;;;8.07;7.37;;;;;;;16.88;82.35;101066.25;5032084;28;20288;-76
2021/07/21 00:50:11;;;;;;;7.77;7.07;;;;;;;16.98;82.37;101069.41;5032308;28;20681;-75
2021/07/21 00:52:40;;;;;;;8.03;7.23;;;;;;;16.95;82.42;101072.19;5032112;28;20266;-76
2021/07/21 00:55:09;;;;;;;8.20;7.50;;;;;;;16.92;82.70;101057.31;5032102;28;20260;-77
2021/07/21 00:57:37;;;;;;;8.03;7.33;;;;;;;16.90;82.85;101053.84;5031874;28;20234;-76
2021/07/21 01:00:04;;;;;;;8.50;7.70;;;;;;;16.81;83.20;101051.53;5032160;28;20256;-76
2021/07/21 01:02:31;;;;;;;8.70;7.47;;;;;;;16.75;83.49;101036.78;5031684;28;20214;-75
2021/07/21 01:04:57;;;;;;;8.00;7.40;;;;;;;16.78;83.82;101033.16;5032334;28;20210;-76
2021/07/21 01:07:25;;;;;;;7.60;7.00;;;;;;;16.88;83.60;101046.00;5031836;28;20234;-76
2021/07/21 01:09:51;;;;;;;8.43;7.63;;;;;;;16.87;83.61;101039.03;5032341;28;20253;-76
2021/07/21 01:12:33;;;;;;;8.73;7.93;;;;;;;16.82;83.71;101042.72;5031768;28;20284;-76
2021/07/21 01:15:10;;;;;;;7.47;6.87;;;;;;;16.89;83.41;101052.16;5031886;28;20250;-76
2021/07/21 01:17:41;;;;;;;6.87;6.37;;;;;;;16.90;83.53;101055.66;5031747;28;20226;-77
2021/07/21 01:20:45;;;;;;;7.70;7.10;;;;;;;17.01;83.20;101064.03;5032039;28;20195;-76
2021/07/21 01:23:22;;;;;;;7.50;6.90;;;;;;;16.95;83.19;101078.31;5029538;28;20210;-76
2021/07/21 01:25:57;;;;;;;8.30;7.60;;;;;;;16.74;83.66;101071.09;5031907;28;20744;-76
2021/07/21 01:28:27;;;;;;;8.17;7.47;;;;;;;16.70;84.18;101040.50;5031366;28;20277;-77
2021/07/21 01:30:57;;;;;;;7.53;6.93;;;;;;;16.74;84.20;101044.75;5031638;28;20198;-77
2021/07/21 01:33:24;;;;;;;8.30;7.60;;;;;;;16.64;84.77;101044.19;5031118;28;20227;-75
2021/07/21 01:35:55;;;;;;;8.33;7.63;;;;;;;16.59;84.86;101027.66;5031776;28;20211;-76
2021/07/21 01:38:27;;;;;;;8.43;7.33;;;;;;;16.53;85.40;101017.34;5031665;28;20234;-77
2021/07/21 01:40:57;;;;;;;8.77;7.97;;;;;;;16.46;85.52;101011.44;5031611;28;20214;-76
2021/07/21 01:43:28;;;;;;;8.60;7.90;;;;;;;16.38;85.88;101011.69;5031405;28;20203;-76
2021/07/21 01:45:56;;;;;;;8.50;7.70;;;;;;;16.37;86.26;100996.81;5030960;28;20233;-76
2021/07/21 01:48:24;;;;;;;8.60;7.90;;;;;;;16.34;86.33;100993.41;5031432;28;20229;-76
2021/07/21 01:50:54;;;;;;;8.70;7.97;;;;;;;16.33;86.42;100983.75;5031425;28;20218;-76
2021/07/21 01:53:22;;;;;;;7.80;7.00;;;;;;;16.39;86.56;100988.81;5031247;28;20280;-75
2021/07/21 01:55:49;;;;;;;8.33;7.43;;;;;;;16.47;86.36;100989.41;5031208;28;20221;-76
2021/07/21 01:58:17;;;;;;;7.93;7.30;;;;;;;16.55;86.25;100997.94;5031045;28;20731;-76
2021/07/21 02:00:50;;;;;;;8.07;7.47;;;;;;;16.62;85.81;101017.03;5031040;28;20263;-77
2021/07/21 02:03:18;;;;;;;7.10;6.40;;;;;;;16.68;85.76;101024.72;5031000;28;20203;-77
2021/07/21 02:05:45;;;;;;;8.50;7.67;;;;;;;16.68;85.43;101033.47;5031520;28;20214;-77
2021/07/21 02:08:12;;;;;;;7.73;7.03;;;;;;;16.67;85.40;101031.78;5031557;28;20233;-76
2021/07/21 02:10:39;;;;;;;8.47;7.77;;;;;;;16.56;85.36;101043.59;5031454;28;20216;-76
2021/07/21 02:13:10;;;;;;;8.10;7.33;;;;;;;16.62;85.49;101030.22;5031061;28;20233;-75
2021/07/21 02:15:37;;;;;;;8.10;7.40;;;;;;;16.70;85.36;101035.22;5033905;28;20242;-76
2021/07/21 02:18:07;;;;;;;7.53;6.83;;;;;;;16.83;85.64;101026.84;5035242;28;20234;-77
2021/07/21 02:20:34;;;;;;;7.63;7.00;;;;;;;16.84;84.58;101064.63;5034965;28;20214;-76
2021/07/21 02:23:01;;;;;;;8.90;8.13;;;;;;;16.68;84.76;101077.44;5034828;28;20206;-76
2021/07/21 02:25:29;;;;;;;7.80;7.20;;;;;;;16.67;85.31;101059.91;5035051;28;20217;-76
2021/07/21 02:27:58;;;;;;;7.43;6.70;;;;;;;16.79;85.31;101046.31;5034803;28;20274;-76
2021/07/21 02:30:26;;;;;;;8.27;7.43;;;;;;;16.86;84.56;101065.44;5034246;28;20253;-77
2021/07/21 02:32:59;;;;;;;8.17;7.50;;;;;;;16.93;84.14;101087.19;5034226;28;20245;-76
2021/07/21 02:35:27;;;;;;;7.70;7.10;;;;;;;16.87;84.41;101098.81;5035134;28;20207;-76
2021/07/21 02:37:53;;;;;;;8.57;7.87;;;;;;;16.67;84.92;101070.47;5034788;28;20301;-76
2021/07/21 02:40:20;;;;;;;7.53;6.93;;;;;;;16.58;85.72;101040.00;5034833;28;20205;-76
2021/07/21 02:42:47;;;;;;;8.40;7.70;;;;;;;16.70;85.37;101035.22;5034244;28;20275;-77
2021/07/21 02:45:14;;;;;;;7.57;6.97;;;;;;;16.77;85.48;101039.34;5033982;28;20198;-76
2021/07/21 02:47:40;;;;;;;8.73;8.03;;;;;;;16.75;85.07;101057.00;5034628;28;20229;-76
2021/07/21 02:50:07;;;;;;;7.23;6.53;;;;;;;16.82;84.90;101062.03;5034811;28;20302;-76
2021/07/21 02:52:39;;;;;;;9.90;9.10;;;;;;;16.73;84.81;101066.72;5034455;28;20210;-77
2021/07/21 02:55:12;;;;;;;8.30;7.60;;;;;;;16.64;85.62;101046.84;5034431;28;20226;-76
2021/07/21 02:57:43;;;;;;;7.03;6.53;;;;;;;16.77;86.03;101037.59;5034567;28;20313;-76
2021/07/21 03:00:12;;;;;;;8.20;7.40;;;;;;;16.84;85.26;101054.94;5034669;28;20206;-77
2021/07/21 03:02:39;;;;;;;8.03;7.33;;;;;;;16.91;85.29;101060.00;5036032;28;20232;-76
2021/07/21 03:05:10;;;;;;;8.00;7.30;;;;;;;16.81;84.60;101086.69;5041240;28;20202;-76
2021/07/21 03:07:40;;;;;;;7.83;7.20;;;;;;;16.93;85.17;101069.59;5034165;28;20241;-75
2021/07/21 03:10:07;;;;;;;8.10;6.60;;;;;;;17.02;84.92;101077.16;5034182;28;20206;-77
2021/07/21 03:12:38;;;;;;;7.10;6.60;;;;;;;17.13;84.54;101084.69;5033960;28;20207;-77
2021/07/21 03:15:06;;;;;;;8.30;7.60;;;;;;;17.11;83.78;101127.88;5033863;28;20230;-76
2021/07/21 03:17:36;;;;;;;7.73;7.03;;;;;;;17.19;84.12;101113.50;5034145;28;20272;-75
2021/07/21 03:20:09;;;;;;;8.47;7.73;;;;;;;17.09;83.65;101137.63;5033778;28;20258;-76
2021/07/21 03:22:37;;;;;;;9.30;7.93;;;;;;;16.87;84.30;101118.13;5034014;28;20269;-76
2021/07/21 03:25:07;;;;;;;7.93;7.37;;;;;;;16.70;85.24;101083.53;5033953;28;20277;-77
2021/07/21 03:27:35;;;;;;;8.47;7.77;;;;;;;16.61;85.82;101063.63;5033423;28;20772;-76
2021/07/21 03:30:06;;;;;;;8.53;7.83;;;;;;;16.50;86.41;101043.81;5033363;28;20298;-76
2021/07/21 03:32:32;;;;;;;9.37;8.57;;;;;;;16.37;87.09;101023.16;5033340;28;20218;-76
2021/07/21 03:34:59;;;;;;;10.17;9.27;;;;;;;16.33;87.38;101016.25;5033797;28;20233;-77
2021/07/21 03:37:27;;;;;;;9.90;9.10;;;;;;;16.29;87.67;101009.34;5033506;28;20230;-77
2021/07/21 03:39:56;;;;;;;8.63;7.83;;;;;;;16.38;87.80;101002.94;5033483;28;20214;-76
2021/07/21 03:42:26;;;;;;;8.50;6.73;;;;;;;16.53;88.25;100991.88;5033261;28;20203;-76
2021/07/21 03:44:54;;;;;;;7.63;6.93;;;;;;;16.58;87.15;101021.53;5032728;28;20210;-76
2021/07/21 03:47:22;;;;;;;7.43;6.90;;;;;;;16.64;87.20;101028.38;5033287;28;20272;-77
2021/07/21 03:49:50;;;;;;;9.53;8.07;;;;;;;16.74;86.50;101057.94;5033595;28;20212;-76
2021/07/21 03:52:17;;;;;;;7.63;7.03;;;;;;;16.78;85.93;101084.13;5033203;28;20210;-76
2021/07/21 03:54:44;;;;;;;8.00;7.30;;;;;;;16.87;86.10;101081.22;5033191;28;20230;-74
2021/07/21 03:57:12;;;;;;;8.17;7.57;;;;;;;16.92;85.88;101098.66;5033015;28;20230;-77
2021/07/21 03:59:40;;;;;;;7.73;7.13;;;;;;;16.97;85.53;101115.19;5033066;28;20202;-77
2021/07/21 04:02:07;;;;;;;14.47;9.17;;;;;;;16.85;84.97;101127.00;5032846;28;20207;-76
2021/07/21 04:04:36;;;;;;;9.53;8.73;;;;;;;16.56;86.32;101107.72;5033409;28;20233;-76
2021/07/21 04:07:04;;;;;;;10.27;9.37;;;;;;;16.31;87.52;101056.72;5033257;28;20230;-76
2021/07/21 04:09:32;;;;;;;11.27;10.17;;;;;;;16.19;88.58;101019.31;5033031;28;20209;-76
2021/07/21 04:12:00;;;;;;;11.00;10.00;;;;;;;16.20;88.85;101009.69;5033110;28;20245;-75
2021/07/21 04:14:27;;;;;;;10.27;9.37;;;;;;;16.19;88.73;101015.84;5032770;28;20284;-76
2021/07/21 04:16:55;;;;;;;11.33;10.17;;;;;;;16.15;89.29;101012.44;5032837;28;20229;-76
2021/07/21 04:19:23;;;;;;;11.67;10.67;;;;;;;16.16;89.55;101000.16;5032963;28;20210;-74
2021/07/21 04:21:52;;;;;;;11.93;10.87;;;;;;;16.15;89.51;101003.69;5032671;28;20252;-73
2021/07/21 04:24:21;;;;;;;11.93;10.83;;;;;;;16.03;90.01;100990.00;5034096;28;20202;-76
2021/07/21 04:26:48;;;;;;;10.50;9.60;;;;;;;16.11;89.92;100997.66;5032899;28;20276;-76
2021/07/21 04:29:17;;;;;;;10.70;9.60;;;;;;;16.09;90.03;100996.84;5032659;28;20202;-76
2021/07/21 04:31:44;;;;;;;9.93;9.13;;;;;;;16.07;90.08;101004.81;5032776;28;20209;-76
2021/07/21 04:34:14;;;;;;;11.80;10.70;;;;;;;16.07;90.22;101003.94;5032053;28;20249;-76
2021/07/21 04:36:42;;;;;;;11.10;9.93;;;;;;;16.18;90.05;101011.50;5032608;28;20303;-76
2021/07/21 04:39:09;;;;;;;10.60;9.80;;;;;;;16.27;89.61;101029.63;5032551;28;20632;-76
2021/07/21 04:41:36;;;;;;;11.53;10.43;;;;;;;16.19;90.15;101021.09;5032540;28;20211;-75
2021/07/21 04:44:03;;;;;;;12.13;10.93;;;;;;;16.20;90.15;101021.06;5032322;28;20209;-76
2021/07/21 04:46:32;;;;;;;11.60;10.60;;;;;;;16.16;90.05;101027.34;5031424;28;20210;-75
2021/07/21 04:48:59;;;;;;;12.07;10.97;;;;;;;16.07;90.42;101028.53;5032708;28;20219;-76
2021/07/21 04:51:30;;;;;;;12.10;10.00;;;;;;;16.12;90.32;101032.78;5032516;28;20210;-76
2021/07/21 04:54:01;;;;;;;11.47;10.30;;;;;;;16.10;90.17;101043.34;5032241;28;20218;-76
2021/07/21 04:56:27;;;;;;;11.47;10.47;;;;;;;16.07;90.45;101039.06;5032217;28;20205;-77
2021/07/21 04:58:54;;;;;;;12.03;10.87;;;;;;;16.02;90.64;101038.31;5031908;28;20224;-76
2021/07/21 05:01:20;;;;;;;11.70;10.60;;;;;;;16.00;90.83;101039.31;5031701;28;20228;-76
2021/07/21 05:03:46;;;;;;;11.73;10.13;;;;;;;16.01;91.42;101023.44;5032157;28;20220;-76
2021/07/21 05:06:13;;;;;;;11.77;10.67;;;;;;;16.07;91.06;101038.16;5031820;28;20202;-76
2021/07/21 05:08:41;;;;;;;10.90;9.90;;;;;;;16.17;90.75;101044.84;5031793;28;20227;-76
2021/07/21 05:11:07;;;;;;;11.37;10.33;;;;;;;16.22;90.52;101064.03;5031419;28;20723;-76
2021/07/21 05:13:38;;;;;;;12.23;11.03;;;;;;;16.28;90.69;101071.72;5031112;28;20201;-76
2021/07/21 05:16:05;;;;;;;11.00;10.00;;;;;;;16.25;90.68;101071.84;5028839;28;20210;-76
2021/07/21 05:18:31;;;;;;;11.30;10.20;;;;;;;16.26;90.56;101064.78;5031562;28;20225;-76
2021/07/21 05:20:57;;;;;;;11.93;10.83;;;;;;;16.26;90.50;101070.91;5030830;28;20628;-76
2021/07/21 05:23:24;;;;;;;11.50;10.43;;;;;;;16.23;90.70;101070.16;5028636;28;20212;-76
2021/07/21 05:25:52;;;;;;;12.40;11.13;;;;;;;16.25;90.22;101092.91;5032075;28;20201;-77
2021/07/21 05:28:18;;;;;;;12.47;11.40;;;;;;;16.22;90.17;101100.06;5033462;28;20226;-78
2021/07/21 05:30:44;;;;;;;11.03;10.23;;;;;;;16.19;90.61;101097.50;5032146;28;20205;-77
2021/07/21 05:33:11;;;;;;;12.50;11.30;;;;;;;16.23;90.50;101097.38;5033986;28;20202;-77
2021/07/21 05:35:38;;;;;;;12.33;11.30;;;;;;;16.16;90.52;101093.19;5034915;28;20220;-78
2021/07/21 05:38:04;;;;;;;13.10;11.90;;;;;;;16.14;90.67;101089.75;5031379;28;20214;-77
2021/07/21 05:40:31;;;;;;;12.77;11.57;;;;;;;16.16;90.83;101100.25;5034557;28;20256;-77
2021/07/21 05:42:58;;;;;;;12.50;11.30;;;;;;;16.21;90.67;101088.66;5032984;28;20207;-77
2021/07/21 05:45:25;;;;;;;12.53;11.23;;;;;;;16.26;90.41;101107.78;5031873;28;20194;-78
2021/07/21 05:47:51;;;;;;;13.30;12.00;;;;;;;16.23;90.36;101118.44;5034756;28;20279;-77
2021/07/21 05:50:19;;;;;;;11.77;10.73;;;;;;;16.34;90.14;101120.72;5037078;28;20198;-78
2021/07/21 05:52:45;;;;;;;12.07;10.43;;;;;;;16.31;89.75;101127.88;5034812;28;20194;-77
2021/07/21 05:55:12;;;;;;;13.37;11.97;;;;;;;16.31;90.12;101125.22;5037615;28;20226;-78
2021/07/21 05:57:44;;;;;;;12.50;11.30;;;;;;;16.42;89.75;101138.94;5038321;28;20225;-77
2021/07/21 06:00:13;;;;;;;12.20;11.10;;;;;;;16.52;89.50;101150.91;5038909;28;20212;-77
2021/07/21 06:02:39;;;;;;;11.57;10.37;;;;;;;16.65;88.85;101175.97;5036785;28;20288;-77
2021/07/21 06:05:07;;;;;;;13.47;11.93;;;;;;;16.50;89.25;101180.84;5037437;28;20358;-78
2021/07/21 06:07:34;;;;;;;12.63;11.27;;;;;;;16.43;89.32;101178.41;5037184;28;20258;-77
2021/07/21 06:10:00;;;;;;;12.90;11.53;;;;;;;16.56;88.77;101199.09;5037023;28;20206;-79
2021/07/21 06:12:27;;;;;;;12.27;11.07;;;;;;;16.61;88.52;101207.72;5040073;28;20209;-79
2021/07/21 06:14:53;;;;;;;13.23;10.87;;;;;;;16.62;88.59;101215.59;5040533;28;20315;-79
2021/07/21 06:17:21;;;;;;;12.60;11.40;;;;;;;16.54;88.96;101200.94;5021500;28;20252;-80
2021/07/21 06:19:47;;;;;;;12.77;11.50;;;;;;;16.59;88.67;101210.41;5036912;28;20201;-80
2021/07/21 06:22:18;;;;;;;11.30;10.30;;;;;;;16.69;88.79;101205.72;5038091;28;20214;-80
2021/07/21 06:24:44;;;;;;;10.90;10.10;;;;;;;16.72;88.56;101221.44;5040756;28;20195;-79
2021/07/21 06:27:11;;;;;;;13.30;12.10;;;;;;;16.62;88.43;101231.41;5039448;28;20720;-78
2021/07/21 06:29:37;;;;;;;11.30;10.30;;;;;;;16.77;88.13;101239.72;5040677;28;20202;-79
2021/07/21 06:32:04;;;;;;;11.27;10.33;;;;;;;16.70;87.99;101252.25;5040130;28;20213;-78
2021/07/21 06:34:32;;;;;;;12.40;11.10;;;;;;;16.78;88.30;101246.75;5041266;28;20240;-78
2021/07/21 06:36:58;;;;;;;11.60;10.53;;;;;;;16.96;87.86;101263.78;5039544;28;20775;-78
2021/07/21 06:39:25;;;;;;;11.10;10.10;;;;;;;17.00;87.30;101290.00;5039757;28;20268;-78
2021/07/21 06:41:52;;;;;;;10.10;9.13;;;;;;;17.18;86.91;101306.16;5038113;28;20263;-78
2021/07/21 06:44:18;;;;;;;11.40;10.40;;;;;;;17.34;86.13;101328.47;5037977;28;20256;-78
2021/07/21 06:46:45;;;;;;;11.60;10.60;;;;;;;17.11;85.43;101374.09;5037257;28;20240;-78
2021/07/21 06:49:11;;;;;;;11.30;10.30;;;;;;;17.13;86.21;101339.75;5037293;28;20211;-78
2021/07/21 06:51:39;;;;;;;12.03;10.93;;;;;;;17.01;86.09;101343.63;5035816;28;20203;-77
2021/07/21 06:54:05;;;;;;;11.67;10.57;;;;;;;16.94;86.33;101336.81;5036601;28;20209;-80
2021/07/21 06:56:32;;;;;;;12.20;10.93;;;;;;;16.93;86.66;101329.81;5036209;28;20223;-79
2021/07/21 06:58:58;;;;;;;10.77;9.87;;;;;;;17.05;86.61;101329.44;5039301;28;20257;-78
2021/07/21 07:01:26;;;;;;;12.50;11.00;;;;;;;17.02;86.12;101351.47;5037943;28;20210;-79
2021/07/21 07:03:53;;;;;;;10.80;9.90;;;;;;;17.07;85.98;101360.13;5039030;28;20217;-80
2021/07/21 07:06:20;;;;;;;12.60;11.60;;;;;;;17.14;85.70;101355.50;5039050;28;20479;-78
2021/07/21 07:08:47;;;;;;;11.23;9.83;;;;;;;17.23;85.07;101384.25;5036137;28;20202;-77
2021/07/21 07:11:14;;;;;;;11.97;10.80;;;;;;;17.14;85.39;101379.25;5035413;28;20210;-79
2021/07/21 07:13:41;;;;;;;11.13;10.13;;;;;;;17.17;84.39;101409.97;5034733;28;20206;-77
2021/07/21 07:16:07;;;;;;;11.10;10.00;;;;;;;17.22;84.86;101397.47;5037468;28;20235;-79
2021/07/21 07:18:33;;;;;;;9.77;8.87;;;;;;;17.41;84.36;101411.84;5038175;28;20620;-79
2021/07/21 07:21:00;;;;;;;10.17;9.17;;;;;;;17.56;84.37;101409.59;5040167;28;20206;-80
2021/07/21 07:23:26;;;;;;;10.40;9.50;;;;;;;17.53;83.98;101433.47;5035387;28;20227;-77
2021/07/21 07:25:55;;;;;;;9.57;8.67;;;;;;;17.66;83.01;101453.31;5034477;28;20221;-77
2021/07/21 07:28:21;;;;;;;10.47;9.47;;;;;;;17.69;82.57;101470.81;5032927;28;20288;-76
2021/07/21 07:30:48;;;;;;;9.23;8.10;;;;;;;17.86;82.26;101489.66;5034548;28;20208;-79
2021/07/21 07:33:14;;;;;;;9.50;8.80;;;;;;;18.03;81.85;101497.03;5037503;28;20268;-78
2021/07/21 07:35:40;;;;;;;8.63;7.83;;;;;;;18.15;81.45;101522.19;5036584;28;20437;-78
2021/07/21 07:38:11;;;;;;;10.83;8.93;;;;;;;18.13;79.92;101569.78;5035820;28;20221;-78
2021/07/21 07:40:37;;;;;;;9.40;8.57;;;;;;;18.00;80.42;101560.53;5034871;28;20206;-78
2021/07/21 07:43:05;;;;;;;9.40;8.60;;;;;;;18.16;80.60;101538.00;5036382;28;20210;-78
2021/07/21 07:45:32;;;;;;;9.53;8.63;;;;;;;18.25;80.44;101548.28;5037910;28;20329;-79
2021/07/21 07:47:58;;;;;;;8.63;7.83;;;;;;;18.43;79.99;101570.56;5036795;28;20521;-79
2021/07/21 07:50:24;;;;;;;8.33;7.63;;;;;;;18.35;79.95;101577.00;5036726;28;20206;-78
2021/07/21 07:52:51;;;;;;;10.67;9.00;;;;;;;18.31;78.47;101620.34;5034491;28;20258;-78
2021/07/21 07:55:17;;;;;;;8.60;7.80;;;;;;;18.46;78.44;101628.63;5036371;28;20277;-78
2021/07/21 07:57:44;;;;;;;9.00;8.17;;;;;;;18.56;78.26;101631.84;5037050;28;20225;-78
2021/07/21 08:00:13;;;;;;;9.37;8.43;;;;;;;18.68;78.02;101632.34;5037022;28;20224;-78
2021/07/21 08:02:40;;;;;;;10.83;8.13;;;;;;;18.66;77.07;101658.84;5035869;28;20265;-78
2021/07/21 08:05:07;;;;;;;9.27;8.43;;;;;;;18.82;77.54;101653.94;5036155;28;20199;-79
2021/07/21 08:07:35;;;;;;;11.53;7.03;;;;;;;18.78;76.74;101681.38;5035991;28;20278;-79
2021/07/21 08:10:02;;;;;;;8.00;7.30;;;;;;;18.87;75.43;101717.25;5037445;28;20251;-78
2021/07/21 08:12:28;;;;;;;6.70;6.20;;;;;;;18.86;75.51;101721.69;5034624;28;20196;-79
2021/07/21 08:14:55;;;;;;;7.43;6.80;;;;;;;18.94;75.24;101726.75;5034330;28;20211;-79
2021/07/21 08:17:22;;;;;;;7.10;6.40;;;;;;;18.63;74.38;101770.00;5034060;28;20222;-78
2021/07/21 08:19:50;;;;;;;7.27;6.77;;;;;;;18.56;75.54;101731.47;5034961;28;20203;-78
2021/07/21 08:22:17;;;;;;;8.10;7.37;;;;;;;18.51;75.55;101722.81;5034719;28;20214;-78
2021/07/21 08:24:43;;;;;;;7.63;6.93;;;;;;;18.33;75.64;101721.59;5035847;28;20202;-78
2021/07/21 08:27:10;;;;;;;8.07;6.87;;;;;;;18.54;76.74;101673.34;5038032;28;20223;-78
2021/07/21 08:29:36;;;;;;;8.70;6.83;;;;;;;18.62;76.04;101689.81;5038094;28;20204;-79
2021/07/21 08:32:03;;;;;;;6.93;6.33;;;;;;;18.72;75.10;101721.25;5034388;28;20201;-79
2021/07/21 08:34:31;;;;;;;7.57;6.87;;;;;;;18.62;74.19;101770.94;5037018;28;20200;-79
2021/07/21 08:36:57;;;;;;;8.10;7.40;;;;;;;18.73;74.66;101752.97;5035874;28;20230;-78
2021/07/21 08:39:24;;;;;;;7.57;6.97;;;;;;;18.75;75.51;101714.09;5037550;28;20207;-78
2021/07/21 08:41:50;;;;;;;6.87;6.20;;;;;;;18.76;74.77;101758.13;5036128;28;20199;-77
2021/07/21 08:44:17;;;;;;;8.10;6.40;;;;;;;18.67;74.09;101774.28;5035778;28;20214;-79
2021/07/21 08:46:44;;;;;;;6.80;6.20;;;;;;;18.75;74.59;101748.50;5034579;28;20234;-78
2021/07/21 08:49:11;;;;;;;8.53;6.57;;;;;;;18.87;75.04;101733.13;5035500;28;20234;-79
2021/07/21 08:51:40;;;;;;;6.93;6.33;;;;;;;18.98;73.85;101782.16;5033904;28;20216;-79
2021/07/21 08:54:08;;;;;;;7.07;6.47;;;;;;;19.07;73.16;101823.34;5034702;28;20210;-78
2021/07/21 08:56:34;;;;;;;6.57;6.07;;;;;;;19.07;72.61;101831.28;5033359;28;20226;-78
2021/07/21 08:59:02;;;;;;;7.30;6.60;;;;;;;19.32;73.31;101802.22;5026694;28;20205;-79
2021/07/21 09:01:28;;;;;;;6.90;6.30;;;;;;;19.38;72.23;101841.72;5034503;28;20196;-78
2021/07/21 09:03:55;;;;;;;7.27;6.57;;;;;;;19.59;71.85;101857.81;5034103;28;20198;-78
2021/07/21 09:06:21;;;;;;;6.97;6.37;;;;;;;19.68;71.46;101877.81;5033411;28;20206;-78
2021/07/21 09:08:49;;;;;;;7.80;6.93;;;;;;;19.63;71.08;101889.44;5032914;28;20203;-76
2021/07/21 09:11:16;;;;;;;6.80;6.20;;;;;;;19.87;71.21;101888.72;5035139;28;20207;-79
2021/07/21 09:13:42;;;;;;;7.20;6.60;;;;;;;19.77;70.73;101902.25;5037778;28;20644;-79
2021/07/21 09:16:09;;;;;;;7.60;6.90;;;;;;;19.76;69.77;101929.69;5035503;28;20232;-80
2021/07/21 09:18:49;;;;;;;6.70;6.10;;;;;;;19.64;69.95;101927.41;5034342;28;20574;-77
2021/07/21 09:21:17;;;;;;;7.33;6.57;;;;;;;19.32;72.63;101835.78;5034419;28;20220;-79
2021/07/21 09:23:46;;;;;;;8.10;7.40;;;;;;;19.05;72.86;101817.25;5033290;28;20209;-81
2021/07/21 09:26:19;;;;;;;7.33;6.73;;;;;;;19.25;73.00;101784.81;5034629;28;20204;-75
2021/07/21 09:28:46;;;;;;;7.33;6.53;;;;;;;19.04;72.71;101816.34;5035325;28;20282;-76
2021/07/21 09:31:14;;;;;;;6.83;6.27;;;;;;;19.27;73.05;101804.16;5034263;28;20200;-78
2021/07/21 09:33:44;;;;;;;7.20;6.43;;;;;;;19.11;72.88;101814.41;5033399;28;20752;-76
2021/07/21 09:36:19;;;;;;;6.63;6.00;;;;;;;18.96;72.91;101793.72;5032932;28;20230;-76
2021/07/21 09:38:46;;;;;;;7.13;6.40;;;;;;;18.99;74.02;101757.44;5033558;28;20210;-78
2021/07/21 09:41:16;;;;;;;6.77;6.27;;;;;;;19.12;74.18;101757.03;5032916;28;20208;-76
2021/07/21 09:43:43;;;;;;;6.57;5.97;;;;;;;19.22;73.32;101798.16;5031056;28;20208;-76
2021/07/21 09:46:12;;;;;;;6.80;6.30;;;;;;;19.19;72.30;101822.09;5031059;28;20203;-77
2021/07/21 09:48:39;;;;;;;6.60;5.97;;;;;;;19.28;72.94;101812.97;5031045;28;20278;-76
2021/07/21 09:51:06;;;;;;;6.30;5.70;;;;;;;19.49;72.61;101806.94;5032363;28;20207;-76
2021/07/21 09:53:41;;;;;;;6.10;5.53;;;;;;;19.32;72.52;101841.94;5031822;28;20214;-76
2021/07/21 09:56:08;;;;;;;6.37;5.70;;;;;;;19.09;72.39;101832.09;5035425;28;20227;-80
2021/07/21 09:58:37;;;;;;;6.70;6.20;;;;;;;19.26;72.04;101828.88;5032554;28;20232;-75
2021/07/21 10:01:04;;;;;;;6.40;5.87;;;;;;;19.33;71.79;101841.03;5032356;28;20204;-75
2021/07/21 10:03:34;;;;;;;6.33;5.80;;;;;;;19.44;70.75;101865.38;5036293;28;20211;-76
2021/07/21 10:06:05;;;;;;;6.43;5.87;;;;;;;19.53;71.44;101847.44;5035071;28;20222;-76
2021/07/21 10:08:39;;;;;;;5.93;5.43;;;;;;;19.77;70.95;101859.88;5040141;28;20228;-76
2021/07/21 10:11:26;;;;;;;6.40;5.80;;;;;;;19.67;69.79;101924.66;5037817;28;20207;-75
2021/07/21 10:13:56;;;;;;;6.23;5.73;;;;;;;19.60;68.53;101968.16;5036290;28;20259;-76
2021/07/21 10:16:33;;;;;;;7.07;6.47;;;;;;;19.45;68.29;101988.06;5033387;28;20630;-75
2021/07/21 10:19:05;;;;;;;6.27;5.67;;;;;;;19.53;68.81;101959.53;5032479;28;20309;-75
2021/07/21 10:21:31;;;;;;;6.57;5.97;;;;;;;19.61;68.76;101972.53;5031898;28;20212;-79
2021/07/21 10:23:58;;;;;;;7.00;6.40;;;;;;;19.67;68.84;101961.75;5025522;28;20212;-79
2021/07/21 10:26:27;;;;;;;7.57;5.97;;;;;;;19.69;68.17;101985.56;5031386;28;20208;-76
2021/07/21 10:28:56;;;;;;;6.27;5.77;;;;;;;19.63;66.87;102027.22;5032343;28;20301;-79
2021/07/21 10:31:23;;;;;;;6.60;6.10;;;;;;;19.89;67.78;101988.44;5032992;28;20200;-76
2021/07/21 10:33:50;;;;;;;6.73;6.23;;;;;;;19.86;67.76;101977.06;5030331;28;20253;-76
2021/07/21 10:36:17;;;;;;;6.13;5.63;;;;;;;20.00;69.86;101885.56;5033027;28;20247;-76
2021/07/21 10:38:43;;;;;;;7.20;6.60;;;;;;;19.94;68.73;101922.91;4685191;28;9999887;-79
2021/07/21 10:41:10;;;;;;;8.53;6.63;;;;;;;19.77;69.09;101928.75;5036229;28;20213;-76
2021/07/21 10:43:37;;;;;;;6.87;6.37;;;;;;;19.83;69.39;101912.66;5035545;28;20216;-76
2021/07/21 10:46:35;;;;;;;8.00;7.30;;;;;;;19.67;69.28;101927.31;5033354;28;20221;-77
2021/07/21 10:49:22;;;;;;;8.60;7.90;;;;;;;19.59;69.55;101901.06;5035944;28;20231;-78
2021/07/21 10:55:18;;;;;;;6.13;5.53;;;;;;;19.74;73.87;101729.28;5032615;28;20336;-77
2021/07/21 11:00:31;;;;;;;6.90;6.40;;;;;;;19.42;71.10;101835.44;5036241;28;20612;-77
2021/07/21 11:03:20;;;;;;;7.30;6.60;;;;;;;19.37;71.87;101796.78;5037493;28;20208;-78
2021/07/21 11:05:51;;;;;;;7.93;7.23;;;;;;;19.30;72.61;101793.44;5038030;28;20222;-79
2021/07/21 11:08:19;;;;;;;7.73;7.13;;;;;;;19.22;72.71;101769.03;5034738;28;20226;-76
2021/07/21 11:10:47;;;;;;;8.50;7.70;;;;;;;19.16;72.55;101771.88;5036058;28;20212;-77
2021/07/21 11:13:38;;;;;;;8.80;8.03;;;;;;;19.08;72.32;101787.16;5035298;28;20207;-77
2021/07/21 11:16:06;;;;;;;7.87;7.10;;;;;;;19.00;74.54;101730.03;5036875;28;20230;-77
2021/07/21 11:18:51;;;;;;;8.73;8.03;;;;;;;18.98;73.11;101750.41;5035157;28;20233;-78
2021/07/21 11:21:20;;;;;;;7.70;7.10;;;;;;;19.04;73.99;101714.94;5032031;28;20207;-78
2021/07/21 11:23:58;;;;;;;7.53;6.93;;;;;;;19.29;74.05;101711.44;5034036;28;20260;-77
2021/07/21 11:26:44;;;;;;;8.00;7.33;;;;;;;19.17;71.44;101805.41;5033871;28;20207;-77
2021/07/21 11:29:49;;;;;;;7.77;7.17;;;;;;;19.27;72.15;101798.88;5026344;28;20340;-77
2021/07/21 11:32:33;;;;;;;7.57;6.97;;;;;;;19.22;70.88;101809.59;5031656;28;20210;-77
2021/07/21 11:35:01;;;;;;;9.03;7.93;;;;;;;19.20;68.60;101935.00;5013131;28;20213;-77
2021/07/21 11:37:35;;;;;;;8.53;7.70;;;;;;;19.35;69.55;101915.13;5021779;28;20233;-76